sensor_id;sensor_type;location;lat;lon;timestamp;pressure;altitude;pressure_sealevel;temperature;humidity
45813;BME280;31519;45.408;10.962;2023-07-31T00:01:21;100379.78;;;29.47;68.63
45813;BME280;31519;45.408;10.962;2023-07-31T00:03:50;100378.13;;;29.37;68.76
45813;BME280;31519;45.408;10.962;2023-07-31T00:06:17;100381.44;;;29.45;68.42
45813;BME280;31519;45.408;10.962;2023-07-31T00:08:45;100380.25;;;29.46;68.02
45813;BME280;31519;45.408;10.962;2023-07-31T00:11:13;100382.22;;;29.45;67.94
45813;BME280;31519;45.408;10.962;2023-07-31T00:13:41;100378.59;;;29.48;68.34
45813;BME280;31519;45.408;10.962;2023-07-31T00:16:09;100376.59;;;29.36;69.40
45813;BME280;31519;45.408;10.962;2023-07-31T00:18:37;100382.50;;;29.35;68.33
45813;BME280;31519;45.408;10.962;2023-07-31T00:21:05;100380.44;;;29.39;67.97
45813;BME280;31519;45.408;10.962;2023-07-31T00:23:33;100381.25;;;29.23;68.73
45813;BME280;31519;45.408;10.962;2023-07-31T00:26:01;100375.53;;;29.46;67.74
45813;BME280;31519;45.408;10.962;2023-07-31T00:28:29;100387.56;;;29.36;68.36
45813;BME280;31519;45.408;10.962;2023-07-31T00:30:56;100386.25;;;29.41;67.74
45813;BME280;31519;45.408;10.962;2023-07-31T00:33:26;100389.00;;;29.41;68.01
45813;BME280;31519;45.408;10.962;2023-07-31T00:35:54;100397.41;;;29.34;68.47
45813;BME280;31519;45.408;10.962;2023-07-31T00:38:22;100397.25;;;29.25;68.26
45813;BME280;31519;45.408;10.962;2023-07-31T00:40:49;100396.03;;;29.42;68.03
45813;BME280;31519;45.408;10.962;2023-07-31T00:43:17;100393.06;;;29.20;68.03
45813;BME280;31519;45.408;10.962;2023-07-31T00:45:46;100393.31;;;29.26;68.05
45813;BME280;31519;45.408;10.962;2023-07-31T00:48:14;100394.81;;;29.14;68.25
45813;BME280;31519;45.408;10.962;2023-07-31T00:50:42;100396.94;;;29.06;69.13
45813;BME280;31519;45.408;10.962;2023-07-31T00:53:10;100398.41;;;29.11;68.18
45813;BME280;31519;45.408;10.962;2023-07-31T00:55:39;100386.47;;;29.18;68.22
45813;BME280;31519;45.408;10.962;2023-07-31T00:58:07;100384.31;;;29.25;67.85
45813;BME280;31519;45.408;10.962;2023-07-31T01:00:35;100382.84;;;29.21;68.02
45813;BME280;31519;45.408;10.962;2023-07-31T01:03:03;100381.88;;;29.15;68.24
45813;BME280;31519;45.408;10.962;2023-07-31T01:05:38;100384.00;;;29.07;68.48
45813;BME280;31519;45.408;10.962;2023-07-31T01:08:10;100388.19;;;29.12;68.45
45813;BME280;31519;45.408;10.962;2023-07-31T01:10:48;100398.56;;;28.91;69.17
45813;BME280;31519;45.408;10.962;2023-07-31T01:13:17;100399.69;;;29.06;69.05
45813;BME280;31519;45.408;10.962;2023-07-31T01:15:45;100399.06;;;29.15;68.47
45813;BME280;31519;45.408;10.962;2023-07-31T01:18:13;100398.34;;;28.98;69.47
45813;BME280;31519;45.408;10.962;2023-07-31T01:20:41;100407.47;;;28.79;70.83
45813;BME280;31519;45.408;10.962;2023-07-31T01:28:45;100406.78;;;28.91;71.98
45813;BME280;31519;45.408;10.962;2023-07-31T01:31:18;100409.25;;;28.86;72.42
45813;BME280;31519;45.408;10.962;2023-07-31T01:33:48;100400.69;;;28.84;72.79
45813;BME280;31519;45.408;10.962;2023-07-31T01:36:16;100397.94;;;28.84;73.39
45813;BME280;31519;45.408;10.962;2023-07-31T01:38:45;100398.81;;;28.81;73.14
45813;BME280;31519;45.408;10.962;2023-07-31T01:41:13;100387.84;;;28.81;72.33
45813;BME280;31519;45.408;10.962;2023-07-31T01:43:41;100391.09;;;28.76;73.18
45813;BME280;31519;45.408;10.962;2023-07-31T01:46:09;100391.69;;;28.67;73.64
45813;BME280;31519;45.408;10.962;2023-07-31T01:48:37;100381.59;;;28.64;74.20
45813;BME280;31519;45.408;10.962;2023-07-31T01:51:05;100377.03;;;28.57;75.16
45813;BME280;31519;45.408;10.962;2023-07-31T01:53:33;100371.56;;;28.57;74.50
45813;BME280;31519;45.408;10.962;2023-07-31T01:56:01;100366.78;;;28.45;75.36
45813;BME280;31519;45.408;10.962;2023-07-31T01:58:31;100375.34;;;28.63;74.67
45813;BME280;31519;45.408;10.962;2023-07-31T02:00:58;100365.91;;;28.48;75.59
45813;BME280;31519;45.408;10.962;2023-07-31T02:03:26;100370.53;;;28.51;75.29
45813;BME280;31519;45.408;10.962;2023-07-31T02:05:54;100372.94;;;28.49;76.74
45813;BME280;31519;45.408;10.962;2023-07-31T02:08:25;100365.72;;;28.55;76.17
45813;BME280;31519;45.408;10.962;2023-07-31T02:10:53;100362.03;;;28.78;74.54
45813;BME280;31519;45.408;10.962;2023-07-31T02:13:21;100363.91;;;28.97;72.78
45813;BME280;31519;45.408;10.962;2023-07-31T02:15:49;100361.09;;;28.85;73.59
45813;BME280;31519;45.408;10.962;2023-07-31T02:18:18;100366.84;;;28.74;73.95
45813;BME280;31519;45.408;10.962;2023-07-31T02:20:49;100363.91;;;28.97;73.01
45813;BME280;31519;45.408;10.962;2023-07-31T02:23:19;100362.41;;;28.64;74.28
45813;BME280;31519;45.408;10.962;2023-07-31T02:25:47;100370.53;;;28.84;73.49
45813;BME280;31519;45.408;10.962;2023-07-31T02:28:15;100371.63;;;28.70;74.84
45813;BME280;31519;45.408;10.962;2023-07-31T02:30:45;100363.34;;;28.57;75.73
45813;BME280;31519;45.408;10.962;2023-07-31T02:33:14;100362.66;;;28.37;78.30
45813;BME280;31519;45.408;10.962;2023-07-31T02:35:43;100370.38;;;28.26;78.97
45813;BME280;31519;45.408;10.962;2023-07-31T02:38:11;100370.13;;;28.37;77.94
45813;BME280;31519;45.408;10.962;2023-07-31T02:40:39;100369.81;;;28.15;78.79
45813;BME280;31519;45.408;10.962;2023-07-31T02:43:08;100357.34;;;28.14;79.12
45813;BME280;31519;45.408;10.962;2023-07-31T02:45:36;100353.19;;;28.06;80.08
45813;BME280;31519;45.408;10.962;2023-07-31T02:48:04;100354.31;;;28.08;79.84
45813;BME280;31519;45.408;10.962;2023-07-31T02:50:32;100359.31;;;28.13;79.37
45813;BME280;31519;45.408;10.962;2023-07-31T02:53:00;100358.75;;;27.66;82.11
45813;BME280;31519;45.408;10.962;2023-07-31T02:55:28;100364.00;;;27.38;84.48
45813;BME280;31519;45.408;10.962;2023-07-31T02:57:56;100360.91;;;27.16;85.58
45813;BME280;31519;45.408;10.962;2023-07-31T03:00:25;100360.13;;;26.96;86.38
45813;BME280;31519;45.408;10.962;2023-07-31T03:02:53;100369.47;;;27.18;85.54
45813;BME280;31519;45.408;10.962;2023-07-31T03:05:21;100367.88;;;27.40;83.74
45813;BME280;31519;45.408;10.962;2023-07-31T03:07:49;100372.91;;;27.42;83.17
45813;BME280;31519;45.408;10.962;2023-07-31T03:10:17;100369.84;;;27.40;82.53
45813;BME280;31519;45.408;10.962;2023-07-31T03:12:48;100375.03;;;27.34;82.44
45813;BME280;31519;45.408;10.962;2023-07-31T03:15:16;100371.31;;;27.44;82.78
45813;BME280;31519;45.408;10.962;2023-07-31T03:17:44;100371.56;;;27.53;81.28
45813;BME280;31519;45.408;10.962;2023-07-31T03:20:12;100383.94;;;27.38;82.50
45813;BME280;31519;45.408;10.962;2023-07-31T03:22:40;100383.09;;;27.41;83.33
45813;BME280;31519;45.408;10.962;2023-07-31T03:25:08;100383.19;;;27.57;81.86
45813;BME280;31519;45.408;10.962;2023-07-31T03:27:38;100381.03;;;27.49;81.79
45813;BME280;31519;45.408;10.962;2023-07-31T03:30:06;100387.84;;;27.37;82.85
45813;BME280;31519;45.408;10.962;2023-07-31T03:32:34;100388.38;;;27.52;82.78
45813;BME280;31519;45.408;10.962;2023-07-31T03:35:02;100389.72;;;27.63;80.73
45813;BME280;31519;45.408;10.962;2023-07-31T03:37:31;100384.53;;;27.49;81.30
45813;BME280;31519;45.408;10.962;2023-07-31T03:39:58;100384.50;;;27.69;80.22
45813;BME280;31519;45.408;10.962;2023-07-31T03:42:26;100388.09;;;27.66;80.48
45813;BME280;31519;45.408;10.962;2023-07-31T03:44:54;100381.31;;;27.54;82.26
45813;BME280;31519;45.408;10.962;2023-07-31T03:47:22;100386.34;;;27.56;82.56
45813;BME280;31519;45.408;10.962;2023-07-31T03:49:52;100391.03;;;27.55;81.96
45813;BME280;31519;45.408;10.962;2023-07-31T03:52:20;100382.91;;;27.52;82.79
45813;BME280;31519;45.408;10.962;2023-07-31T03:54:48;100387.53;;;27.55;82.30
45813;BME280;31519;45.408;10.962;2023-07-31T03:57:16;100381.34;;;27.51;81.99
45813;BME280;31519;45.408;10.962;2023-07-31T03:59:44;100380.09;;;27.55;80.34
45813;BME280;31519;45.408;10.962;2023-07-31T04:02:12;100388.03;;;27.50;80.68
45813;BME280;31519;45.408;10.962;2023-07-31T04:04:41;100384.91;;;27.28;82.04
45813;BME280;31519;45.408;10.962;2023-07-31T04:07:10;100375.22;;;27.43;80.74
45813;BME280;31519;45.408;10.962;2023-07-31T04:09:37;100380.13;;;27.12;82.75
45813;BME280;31519;45.408;10.962;2023-07-31T04:12:05;100371.97;;;27.09;83.02
45813;BME280;31519;45.408;10.962;2023-07-31T04:14:33;100369.81;;;27.20;83.20
45813;BME280;31519;45.408;10.962;2023-07-31T04:17:02;100375.66;;;27.22;83.39
45813;BME280;31519;45.408;10.962;2023-07-31T04:19:29;100386.94;;;27.24;83.04
45813;BME280;31519;45.408;10.962;2023-07-31T04:21:57;100390.19;;;27.39;82.03
45813;BME280;31519;45.408;10.962;2023-07-31T04:24:25;100396.06;;;27.37;82.65
45813;BME280;31519;45.408;10.962;2023-07-31T04:26:53;100393.47;;;27.30;82.84
45813;BME280;31519;45.408;10.962;2023-07-31T04:29:21;100392.00;;;27.45;81.86
45813;BME280;31519;45.408;10.962;2023-07-31T04:31:50;100390.53;;;27.60;80.82
45813;BME280;31519;45.408;10.962;2023-07-31T04:34:17;100397.28;;;27.75;80.28
45813;BME280;31519;45.408;10.962;2023-07-31T04:36:45;100393.19;;;27.64;81.01
45813;BME280;31519;45.408;10.962;2023-07-31T04:39:13;100393.53;;;27.46;80.85
45813;BME280;31519;45.408;10.962;2023-07-31T04:41:41;100390.91;;;27.62;79.80
45813;BME280;31519;45.408;10.962;2023-07-31T04:44:09;100394.34;;;27.66;79.86
45813;BME280;31519;45.408;10.962;2023-07-31T04:46:39;100388.91;;;27.43;80.60
45813;BME280;31519;45.408;10.962;2023-07-31T04:49:08;100394.13;;;27.57;80.08
45813;BME280;31519;45.408;10.962;2023-07-31T04:51:36;100401.28;;;27.51;80.07
45813;BME280;31519;45.408;10.962;2023-07-31T04:54:04;100395.31;;;27.56;79.65
45813;BME280;31519;45.408;10.962;2023-07-31T04:56:32;100386.59;;;27.42;80.51
45813;BME280;31519;45.408;10.962;2023-07-31T04:59:00;100389.78;;;27.60;80.41
45813;BME280;31519;45.408;10.962;2023-07-31T05:01:28;100393.78;;;27.75;79.62
45813;BME280;31519;45.408;10.962;2023-07-31T05:03:56;100385.78;;;27.64;79.92
45813;BME280;31519;45.408;10.962;2023-07-31T05:06:24;100392.66;;;27.72;80.09
45813;BME280;31519;45.408;10.962;2023-07-31T05:08:52;100393.50;;;27.69;79.54
45813;BME280;31519;45.408;10.962;2023-07-31T05:11:20;100391.94;;;27.68;79.10
45813;BME280;31519;45.408;10.962;2023-07-31T05:13:48;100393.56;;;27.66;78.72
45813;BME280;31519;45.408;10.962;2023-07-31T05:16:16;100396.78;;;27.61;79.33
45813;BME280;31519;45.408;10.962;2023-07-31T05:18:44;100398.47;;;27.55;79.90
45813;BME280;31519;45.408;10.962;2023-07-31T05:21:12;100402.84;;;27.52;80.75
45813;BME280;31519;45.408;10.962;2023-07-31T05:23:40;100404.38;;;27.53;80.04
45813;BME280;31519;45.408;10.962;2023-07-31T05:26:08;100406.34;;;27.72;78.82
45813;BME280;31519;45.408;10.962;2023-07-31T05:28:39;100415.19;;;27.60;79.34
45813;BME280;31519;45.408;10.962;2023-07-31T05:31:07;100416.44;;;27.75;79.40
45813;BME280;31519;45.408;10.962;2023-07-31T05:33:35;100412.94;;;27.75;80.03
45813;BME280;31519;45.408;10.962;2023-07-31T05:36:03;100422.97;;;27.82;79.49
45813;BME280;31519;45.408;10.962;2023-07-31T05:38:31;100425.16;;;28.06;78.88
45813;BME280;31519;45.408;10.962;2023-07-31T05:40:59;100417.16;;;27.96;78.27
45813;BME280;31519;45.408;10.962;2023-07-31T05:43:27;100417.81;;;27.84;79.36
45813;BME280;31519;45.408;10.962;2023-07-31T05:45:55;100418.72;;;27.97;77.57
45813;BME280;31519;45.408;10.962;2023-07-31T05:48:23;100421.50;;;27.77;77.35
45813;BME280;31519;45.408;10.962;2023-07-31T05:50:52;100430.25;;;27.68;78.28
45813;BME280;31519;45.408;10.962;2023-07-31T05:53:20;100418.97;;;27.04;83.46
45813;BME280;31519;45.408;10.962;2023-07-31T05:55:48;100423.84;;;26.93;85.55
45813;BME280;31519;45.408;10.962;2023-07-31T05:58:16;100416.88;;;26.88;87.80
45813;BME280;31519;45.408;10.962;2023-07-31T06:00:44;100416.63;;;27.45;84.81
45813;BME280;31519;45.408;10.962;2023-07-31T06:03:12;100425.13;;;27.70;82.77
45813;BME280;31519;45.408;10.962;2023-07-31T06:05:40;100422.59;;;27.60;82.24
45813;BME280;31519;45.408;10.962;2023-07-31T06:08:08;100422.69;;;27.56;82.75
45813;BME280;31519;45.408;10.962;2023-07-31T06:10:36;100430.25;;;27.68;80.78
45813;BME280;31519;45.408;10.962;2023-07-31T06:13:04;100432.09;;;27.55;82.52
45813;BME280;31519;45.408;10.962;2023-07-31T06:15:32;100429.00;;;27.73;81.62
45813;BME280;31519;45.408;10.962;2023-07-31T06:18:00;100428.81;;;28.19;79.31
45813;BME280;31519;45.408;10.962;2023-07-31T06:20:30;100439.94;;;28.29;78.65
45813;BME280;31519;45.408;10.962;2023-07-31T06:22:57;100442.88;;;28.38;77.67
45813;BME280;31519;45.408;10.962;2023-07-31T06:25:25;100438.31;;;28.15;74.48
45813;BME280;31519;45.408;10.962;2023-07-31T06:27:53;100445.28;;;28.36;74.22
45813;BME280;31519;45.408;10.962;2023-07-31T06:30:21;100449.94;;;28.55;73.45
45813;BME280;31519;45.408;10.962;2023-07-31T06:32:49;100443.75;;;28.51;73.51
45813;BME280;31519;45.408;10.962;2023-07-31T06:35:17;100453.41;;;28.55;73.66
45813;BME280;31519;45.408;10.962;2023-07-31T06:37:45;100448.25;;;28.77;72.37
45813;BME280;31519;45.408;10.962;2023-07-31T06:40:13;100448.69;;;28.92;70.67
45813;BME280;31519;45.408;10.962;2023-07-31T06:42:41;100451.16;;;28.86;71.23
45813;BME280;31519;45.408;10.962;2023-07-31T06:45:09;100446.00;;;29.04;69.67
45813;BME280;31519;45.408;10.962;2023-07-31T06:47:37;100450.03;;;29.00;69.44
45813;BME280;31519;45.408;10.962;2023-07-31T06:50:05;100454.59;;;28.90;70.27
45813;BME280;31519;45.408;10.962;2023-07-31T06:52:33;100445.88;;;29.40;68.55
45813;BME280;31519;45.408;10.962;2023-07-31T06:55:17;100451.09;;;29.92;66.98
45813;BME280;31519;45.408;10.962;2023-07-31T06:57:50;100446.72;;;29.66;66.60
45813;BME280;31519;45.408;10.962;2023-07-31T07:00:18;100445.63;;;29.76;66.65
45813;BME280;31519;45.408;10.962;2023-07-31T07:02:47;100454.53;;;30.34;63.97
45813;BME280;31519;45.408;10.962;2023-07-31T07:05:16;100452.91;;;30.50;65.76
45813;BME280;31519;45.408;10.962;2023-07-31T07:07:45;100449.16;;;30.69;63.34
45813;BME280;31519;45.408;10.962;2023-07-31T07:10:13;100450.97;;;30.97;61.00
45813;BME280;31519;45.408;10.962;2023-07-31T07:12:41;100449.97;;;31.38;59.83
45813;BME280;31519;45.408;10.962;2023-07-31T07:15:09;100449.56;;;31.27;59.39
45813;BME280;31519;45.408;10.962;2023-07-31T07:17:37;100453.34;;;31.20;59.49
45813;BME280;31519;45.408;10.962;2023-07-31T07:20:05;100456.97;;;31.17;59.83
45813;BME280;31519;45.408;10.962;2023-07-31T07:22:33;100455.94;;;31.02;59.66
45813;BME280;31519;45.408;10.962;2023-07-31T07:25:02;100460.22;;;30.91;58.39
45813;BME280;31519;45.408;10.962;2023-07-31T07:27:30;100463.88;;;30.75;58.13
45813;BME280;31519;45.408;10.962;2023-07-31T07:29:58;100456.03;;;30.86;58.27
45813;BME280;31519;45.408;10.962;2023-07-31T07:32:26;100461.59;;;30.61;58.94
45813;BME280;31519;45.408;10.962;2023-07-31T07:34:55;100456.59;;;30.81;58.37
45813;BME280;31519;45.408;10.962;2023-07-31T07:37:22;100460.13;;;30.81;58.21
45813;BME280;31519;45.408;10.962;2023-07-31T07:39:50;100457.78;;;31.05;57.62
45813;BME280;31519;45.408;10.962;2023-07-31T07:42:18;100454.13;;;31.08;57.76
45813;BME280;31519;45.408;10.962;2023-07-31T07:44:46;100447.22;;;31.38;57.39
45813;BME280;31519;45.408;10.962;2023-07-31T07:47:14;100456.97;;;31.17;58.76
45813;BME280;31519;45.408;10.962;2023-07-31T07:49:42;100450.34;;;31.28;57.38
45813;BME280;31519;45.408;10.962;2023-07-31T07:52:17;100449.13;;;31.29;57.65
45813;BME280;31519;45.408;10.962;2023-07-31T07:54:45;100447.91;;;31.51;57.18
45813;BME280;31519;45.408;10.962;2023-07-31T07:57:13;100454.25;;;31.05;57.34
45813;BME280;31519;45.408;10.962;2023-07-31T07:59:41;100450.56;;;30.73;59.53
45813;BME280;31519;45.408;10.962;2023-07-31T08:02:09;100448.22;;;30.85;59.15
45813;BME280;31519;45.408;10.962;2023-07-31T08:04:37;100444.47;;;31.04;58.55
45813;BME280;31519;45.408;10.962;2023-07-31T08:07:05;100451.66;;;30.76;59.45
45813;BME280;31519;45.408;10.962;2023-07-31T08:09:33;100441.22;;;30.20;61.65
45813;BME280;31519;45.408;10.962;2023-07-31T08:12:01;100445.31;;;30.28;61.49
45813;BME280;31519;45.408;10.962;2023-07-31T08:14:31;100437.47;;;30.39;60.90
45813;BME280;31519;45.408;10.962;2023-07-31T08:17:00;100442.75;;;30.21;62.50
45813;BME280;31519;45.408;10.962;2023-07-31T08:19:28;100446.72;;;30.71;60.83
45813;BME280;31519;45.408;10.962;2023-07-31T08:21:56;100452.94;;;31.09;58.86
45813;BME280;31519;45.408;10.962;2023-07-31T08:24:25;100445.47;;;31.32;58.77
45813;BME280;31519;45.408;10.962;2023-07-31T08:26:53;100448.59;;;31.55;58.25
45813;BME280;31519;45.408;10.962;2023-07-31T08:29:21;100457.41;;;31.72;57.71
45813;BME280;31519;45.408;10.962;2023-07-31T08:31:49;100454.06;;;31.77;56.04
45813;BME280;31519;45.408;10.962;2023-07-31T08:34:17;100453.97;;;31.59;56.71
45813;BME280;31519;45.408;10.962;2023-07-31T08:36:45;100449.78;;;31.54;56.07
45813;BME280;31519;45.408;10.962;2023-07-31T08:39:13;100459.28;;;31.75;53.33
45813;BME280;31519;45.408;10.962;2023-07-31T08:41:41;100460.97;;;32.03;49.58
45813;BME280;31519;45.408;10.962;2023-07-31T08:44:09;100459.63;;;32.08;47.89
45813;BME280;31519;45.408;10.962;2023-07-31T08:46:38;100463.19;;;32.18;47.20
45813;BME280;31519;45.408;10.962;2023-07-31T08:49:07;100464.88;;;32.15;47.47
45813;BME280;31519;45.408;10.962;2023-07-31T08:51:35;100461.03;;;32.43;46.88
45813;BME280;31519;45.408;10.962;2023-07-31T08:54:04;100464.63;;;32.31;46.39
45813;BME280;31519;45.408;10.962;2023-07-31T08:56:32;100461.72;;;32.26;46.23
45813;BME280;31519;45.408;10.962;2023-07-31T08:59:01;100463.63;;;32.47;45.87
45813;BME280;31519;45.408;10.962;2023-07-31T09:01:30;100457.78;;;32.45;46.58
45813;BME280;31519;45.408;10.962;2023-07-31T09:03:59;100456.09;;;32.87;46.14
45813;BME280;31519;45.408;10.962;2023-07-31T09:06:29;100449.94;;;32.25;47.46
45813;BME280;31519;45.408;10.962;2023-07-31T09:08:58;100457.94;;;32.81;46.31
45813;BME280;31519;45.408;10.962;2023-07-31T09:11:26;100449.19;;;32.83;44.93
45813;BME280;31519;45.408;10.962;2023-07-31T09:13:54;100448.25;;;32.68;44.67
45813;BME280;31519;45.408;10.962;2023-07-31T09:16:28;100445.97;;;32.84;43.67
45813;BME280;31519;45.408;10.962;2023-07-31T09:19:00;100441.69;;;32.92;44.07
45813;BME280;31519;45.408;10.962;2023-07-31T09:21:29;100426.34;;;32.82;44.55
45813;BME280;31519;45.408;10.962;2023-07-31T09:23:57;100427.59;;;32.72;44.24
45813;BME280;31519;45.408;10.962;2023-07-31T09:29:00;100426.66;;;32.84;43.35
45813;BME280;31519;45.408;10.962;2023-07-31T09:31:46;100433.13;;;32.81;43.12
45813;BME280;31519;45.408;10.962;2023-07-31T09:34:14;100425.44;;;32.85;43.23
45813;BME280;31519;45.408;10.962;2023-07-31T09:39:13;100424.69;;;33.12;43.28
45813;BME280;31519;45.408;10.962;2023-07-31T09:41:44;100425.91;;;32.93;43.35
45813;BME280;31519;45.408;10.962;2023-07-31T09:44:13;100421.31;;;32.90;42.92
45813;BME280;31519;45.408;10.962;2023-07-31T09:46:41;100429.13;;;33.10;43.13
45813;BME280;31519;45.408;10.962;2023-07-31T09:49:12;100426.09;;;33.17;42.77
45813;BME280;31519;45.408;10.962;2023-07-31T09:51:41;100428.25;;;33.22;42.72
45813;BME280;31519;45.408;10.962;2023-07-31T09:54:10;100430.69;;;33.20;42.39
45813;BME280;31519;45.408;10.962;2023-07-31T09:56:42;100426.09;;;33.35;42.54
45813;BME280;31519;45.408;10.962;2023-07-31T09:59:12;100413.66;;;33.39;43.21
45813;BME280;31519;45.408;10.962;2023-07-31T10:01:40;100422.88;;;33.46;42.81
45813;BME280;31519;45.408;10.962;2023-07-31T10:04:10;100427.47;;;33.21;42.48
45813;BME280;31519;45.408;10.962;2023-07-31T10:06:38;100429.47;;;33.30;43.05
45813;BME280;31519;45.408;10.962;2023-07-31T10:09:08;100414.53;;;33.64;42.53
45813;BME280;31519;45.408;10.962;2023-07-31T10:11:43;100413.50;;;33.43;43.06
45813;BME280;31519;45.408;10.962;2023-07-31T10:14:13;100411.44;;;33.80;42.56
45813;BME280;31519;45.408;10.962;2023-07-31T10:16:41;100405.94;;;33.62;42.74
45813;BME280;31519;45.408;10.962;2023-07-31T10:19:10;100409.94;;;33.70;41.82
45813;BME280;31519;45.408;10.962;2023-07-31T10:21:39;100404.22;;;33.64;42.55
45813;BME280;31519;45.408;10.962;2023-07-31T10:24:08;100411.44;;;33.80;41.55
45813;BME280;31519;45.408;10.962;2023-07-31T10:26:37;100409.41;;;33.90;40.78
45813;BME280;31519;45.408;10.962;2023-07-31T10:29:07;100407.09;;;33.97;40.92
45813;BME280;31519;45.408;10.962;2023-07-31T10:31:35;100411.16;;;34.11;40.28
45813;BME280;31519;45.408;10.962;2023-07-31T10:34:04;100408.44;;;34.02;40.42
45813;BME280;31519;45.408;10.962;2023-07-31T10:36:32;100407.09;;;33.97;39.92
45813;BME280;31519;45.408;10.962;2023-07-31T10:39:03;100410.13;;;34.08;40.62
45813;BME280;31519;45.408;10.962;2023-07-31T10:41:31;100405.00;;;34.25;40.17
45813;BME280;31519;45.408;10.962;2023-07-31T10:44:00;100404.28;;;34.06;40.43
45813;BME280;31519;45.408;10.962;2023-07-31T10:46:28;100399.81;;;34.18;41.13
45813;BME280;31519;45.408;10.962;2023-07-31T10:48:58;100398.06;;;34.30;40.68
45813;BME280;31519;45.408;10.962;2023-07-31T10:51:33;100395.91;;;34.57;40.17
45813;BME280;31519;45.408;10.962;2023-07-31T10:54:12;100396.53;;;33.87;40.65
45813;BME280;31519;45.408;10.962;2023-07-31T10:56:43;100393.41;;;33.06;42.89
45813;BME280;31519;45.408;10.962;2023-07-31T10:59:12;100385.84;;;33.70;41.96
45813;BME280;31519;45.408;10.962;2023-07-31T11:04:22;100403.19;;;34.22;41.73
45813;BME280;31519;45.408;10.962;2023-07-31T11:06:57;100397.25;;;34.62;40.50
45813;BME280;31519;45.408;10.962;2023-07-31T11:09:29;100392.38;;;34.81;40.53
45813;BME280;31519;45.408;10.962;2023-07-31T11:11:58;100392.72;;;34.50;40.84
45813;BME280;31519;45.408;10.962;2023-07-31T11:14:26;100399.00;;;34.26;40.70
45813;BME280;31519;45.408;10.962;2023-07-31T11:16:54;100400.06;;;33.87;41.13
45813;BME280;31519;45.408;10.962;2023-07-31T11:19:26;100397.19;;;33.81;41.46
45813;BME280;31519;45.408;10.962;2023-07-31T11:21:54;100386.94;;;34.62;40.11
45813;BME280;31519;45.408;10.962;2023-07-31T11:24:23;100389.25;;;34.64;40.01
45813;BME280;31519;45.408;10.962;2023-07-31T11:26:51;100394.63;;;34.91;39.94
45813;BME280;31519;45.408;10.962;2023-07-31T11:29:19;100384.38;;;35.50;38.96
45813;BME280;31519;45.408;10.962;2023-07-31T11:31:48;100390.88;;;35.62;39.35
45813;BME280;31519;45.408;10.962;2023-07-31T11:34:17;100389.94;;;35.36;38.95
45813;BME280;31519;45.408;10.962;2023-07-31T11:36:54;100382.38;;;35.22;39.22
45813;BME280;31519;45.408;10.962;2023-07-31T11:39:23;100372.88;;;34.51;40.74
45813;BME280;31519;45.408;10.962;2023-07-31T11:41:51;100375.13;;;34.86;40.23
45813;BME280;31519;45.408;10.962;2023-07-31T11:44:20;100372.66;;;34.64;40.21
45813;BME280;31519;45.408;10.962;2023-07-31T11:46:57;100368.75;;;34.23;40.31
45813;BME280;31519;45.408;10.962;2023-07-31T11:49:25;100365.72;;;33.61;41.63
45813;BME280;31519;45.408;10.962;2023-07-31T11:51:53;100366.56;;;33.94;41.60
45813;BME280;31519;45.408;10.962;2023-07-31T11:54:22;100360.63;;;33.87;41.70
45813;BME280;31519;45.408;10.962;2023-07-31T11:56:50;100367.50;;;34.95;40.36
45813;BME280;31519;45.408;10.962;2023-07-31T11:59:19;100359.16;;;35.48;40.06
45813;BME280;31519;45.408;10.962;2023-07-31T12:01:47;100362.97;;;35.80;39.74
45813;BME280;31519;45.408;10.962;2023-07-31T12:04:18;100366.16;;;36.08;39.27
45813;BME280;31519;45.408;10.962;2023-07-31T12:06:47;100365.28;;;36.17;38.67
45813;BME280;31519;45.408;10.962;2023-07-31T12:09:15;100358.59;;;35.59;38.19
45813;BME280;31519;45.408;10.962;2023-07-31T12:11:44;100360.88;;;34.54;40.47
45813;BME280;31519;45.408;10.962;2023-07-31T12:14:26;100343.97;;;34.76;40.11
45813;BME280;31519;45.408;10.962;2023-07-31T12:17:00;100335.38;;;35.56;38.22
45813;BME280;31519;45.408;10.962;2023-07-31T12:19:29;100335.31;;;35.66;37.84
45813;BME280;31519;45.408;10.962;2023-07-31T12:21:58;100345.56;;;35.80;37.71
45813;BME280;31519;45.408;10.962;2023-07-31T12:24:28;100339.56;;;36.16;36.73
45813;BME280;31519;45.408;10.962;2023-07-31T12:26:56;100326.84;;;36.24;36.19
45813;BME280;31519;45.408;10.962;2023-07-31T12:29:33;100324.22;;;34.68;38.65
45813;BME280;31519;45.408;10.962;2023-07-31T12:32:03;100312.09;;;35.19;38.43
45813;BME280;31519;45.408;10.962;2023-07-31T12:34:32;100307.59;;;35.51;37.60
45813;BME280;31519;45.408;10.962;2023-07-31T12:37:10;100304.00;;;34.77;37.75
45813;BME280;31519;45.408;10.962;2023-07-31T12:39:38;100307.38;;;35.54;37.00
45813;BME280;31519;45.408;10.962;2023-07-31T12:42:06;100310.56;;;35.97;35.56
45813;BME280;31519;45.408;10.962;2023-07-31T12:44:34;100302.88;;;37.13;33.30
45813;BME280;31519;45.408;10.962;2023-07-31T12:47:02;100291.75;;;36.62;34.42
45813;BME280;31519;45.408;10.962;2023-07-31T12:49:32;100282.91;;;35.68;34.07
45813;BME280;31519;45.408;10.962;2023-07-31T12:52:00;100288.47;;;36.63;34.35
45813;BME280;31519;45.408;10.962;2023-07-31T12:54:28;100295.88;;;36.72;34.17
45813;BME280;31519;45.408;10.962;2023-07-31T12:56:56;100279.81;;;37.33;32.54
45813;BME280;31519;45.408;10.962;2023-07-31T12:59:25;100281.28;;;37.28;32.37
45813;BME280;31519;45.408;10.962;2023-07-31T13:01:53;100284.69;;;36.86;33.24